Time;durP1;ratioP1;P1;durP2;ratioP2;P2;SDS_P1;SDS_P2;PMS_P1;PMS_P2;Temp;Humidity;BMP_temperature;BMP_pressure;BME280_temperature;BME280_humidity;BME280_pressure;Samples;Min_cycle;Max_cycle;Signal;HPM_P1;HPM_P2
2022/10/22 00:01:33;;;;;;;0.57;0.57;;;19.00;68.80;;;;;;5086351;28;45226;-66
2022/10/22 00:04:00;;;;;;;0.50;0.50;;;19.00;68.80;;;;;;5086601;28;45319;-66
2022/10/22 00:06:27;;;;;;;0.50;0.50;;;19.00;68.90;;;;;;5086254;28;45512;-66
2022/10/22 00:08:54;;;;;;;1.17;0.40;;;19.00;68.90;;;;;;5086111;28;46482;-67
2022/10/22 00:11:21;;;;;;;0.57;0.45;;;19.00;68.90;;;;;;5086032;28;45225;-67
2022/10/22 00:13:48;;;;;;;0.45;0.45;;;19.00;68.80;;;;;;5086141;28;45272;-66
2022/10/22 00:16:15;;;;;;;0.85;0.63;;;19.00;68.80;;;;;;5086502;28;45429;-67
2022/10/22 00:18:43;;;;;;;0.43;0.40;;;19.00;68.70;;;;;;5085917;28;46359;-66
2022/10/22 00:21:10;;;;;;;0.47;0.43;;;19.00;69.40;;;;;;5086201;28;45298;-66
2022/10/22 00:23:39;;;;;;;0.68;0.50;;;19.00;68.70;;;;;;5086068;28;45193;-66
2022/10/22 00:26:06;;;;;;;0.85;0.45;;;19.00;68.70;;;;;;5086265;28;45295;-66
2022/10/22 00:28:33;;;;;;;0.47;0.47;;;19.00;68.70;;;;;;5086028;28;46491;-66
2022/10/22 00:31:00;;;;;;;0.60;0.60;;;19.00;68.70;;;;;;5085856;28;45199;-66
2022/10/22 00:33:27;;;;;;;0.70;0.55;;;19.00;68.70;;;;;;5086112;28;45272;-66
2022/10/22 00:35:55;;;;;;;1.15;0.68;;;18.90;68.70;;;;;;5086040;28;45419;-66
2022/10/22 00:38:22;;;;;;;0.85;0.68;;;18.90;68.80;;;;;;5085659;28;45299;-66
2022/10/22 00:40:49;;;;;;;0.60;0.50;;;18.90;69.40;;;;;;5085708;28;45249;-66
2022/10/22 00:43:17;;;;;;;0.55;0.40;;;18.90;68.80;;;;;;5085689;27;45199;-66
2022/10/22 00:45:44;;;;;;;1.02;0.50;;;18.90;68.80;;;;;;5085949;28;45298;-66
2022/10/22 00:48:11;;;;;;;0.40;0.40;;;18.90;68.80;;;;;;5085460;28;45376;-67
2022/10/22 00:50:39;;;;;;;0.43;0.43;;;18.90;68.80;;;;;;5085500;28;45359;-67
2022/10/22 00:53:10;;;;;;;0.40;0.40;;;18.90;68.70;;;;;;5085641;28;45273;-67
2022/10/22 00:55:37;;;;;;;1.95;0.50;;;18.90;68.70;;;;;;5085566;28;45292;-66
2022/10/22 00:58:04;;;;;;;0.60;0.60;;;18.90;68.70;;;;;;5085345;28;46404;-66
2022/10/22 01:00:31;;;;;;;0.40;0.40;;;18.90;68.70;;;;;;5085560;28;45244;-66
2022/10/22 01:02:58;;;;;;;0.30;0.30;;;18.90;68.80;;;;;;5085576;28;45209;-67
2022/10/22 01:05:27;;;;;;;0.60;0.60;;;18.90;68.70;;;;;;5085683;28;45463;-66
2022/10/22 01:07:54;;;;;;;0.65;0.50;;;18.90;68.80;;;;;;5082716;28;45291;-66
2022/10/22 01:10:29;;;;;;;0.40;0.40;;;18.90;68.80;;;;;;5085252;28;45268;-67
2022/10/22 01:13:02;;;;;;;0.50;0.50;;;18.90;68.70;;;;;;5085242;28;45325;-67
2022/10/22 01:15:31;;;;;;;0.63;0.63;;;18.90;68.70;;;;;;5085573;28;45265;-66
2022/10/22 01:18:00;;;;;;;0.35;0.35;;;18.90;68.70;;;;;;5085187;28;46397;-66
2022/10/22 01:20:53;;;;;;;0.52;0.50;;;18.90;68.80;;;;;;5085296;28;45340;-66
2022/10/22 01:23:32;;;;;;;0.50;0.50;;;18.90;68.70;;;;;;5085383;28;45296;-66
2022/10/22 01:26:05;;;;;;;1.45;0.40;;;18.90;68.70;;;;;;5085521;28;45371;-66
2022/10/22 01:28:47;;;;;;;0.82;0.57;;;18.90;68.70;;;;;;5084996;28;46403;-66
2022/10/22 01:31:13;;;;;;;0.77;0.60;;;18.80;68.70;;;;;;5084958;28;45181;-67
2022/10/22 01:33:40;;;;;;;0.55;0.50;;;18.80;68.60;;;;;;5085298;28;45304;-66
2022/10/22 01:36:08;;;;;;;1.25;0.40;;;18.80;68.60;;;;;;5085263;28;45303;-66
2022/10/22 01:38:34;;;;;;;1.02;0.50;;;18.80;68.70;;;;;;5084893;28;46469;-66
2022/10/22 01:41:01;;;;;;;1.42;0.55;;;18.80;68.70;;;;;;5085030;28;45194;-66
2022/10/22 01:43:28;;;;;;;0.93;0.40;;;18.80;68.70;;;;;;5084766;28;45208;-66
2022/10/22 01:45:57;;;;;;;0.63;0.40;;;18.80;68.70;;;;;;5085498;28;45528;-66
2022/10/22 01:48:33;;;;;;;1.13;0.52;;;18.80;68.70;;;;;;5084862;28;46404;-66
2022/10/22 01:51:21;;;;;;;0.57;0.50;;;18.80;68.60;;;;;;5084876;28;45303;-66
2022/10/22 01:53:50;;;;;;;1.23;0.50;;;18.80;68.90;;;;;;5084900;28;45196;-66
2022/10/22 01:56:28;;;;;;;0.65;0.50;;;18.80;69.00;;;;;;5085138;28;45296;-66
2022/10/22 01:58:58;;;;;;;0.52;0.52;;;18.80;69.20;;;;;;5082055;28;46923;-66
2022/10/22 02:01:29;;;;;;;0.88;0.73;;;18.80;69.20;;;;;;5084791;28;45195;-66
2022/10/22 02:03:59;;;;;;;0.65;0.60;;;18.80;69.00;;;;;;5084919;28;45289;-66
2022/10/22 02:06:25;;;;;;;0.35;0.35;;;18.80;68.80;;;;;;5086152;27;45411;-66
2022/10/22 02:08:52;;;;;;;0.65;0.60;;;18.80;68.90;;;;;;5088008;28;45319;-66
2022/10/22 02:11:19;;;;;;;1.33;0.60;;;18.80;69.60;;;;;;5087961;28;45371;-66
2022/10/22 02:13:47;;;;;;;0.38;0.38;;;18.70;68.80;;;;;;5088380;28;45213;-66
2022/10/22 02:16:16;;;;;;;0.47;0.47;;;18.80;68.90;;;;;;5088410;28;45185;-66
2022/10/22 02:18:45;;;;;;;0.63;0.50;;;18.70;68.80;;;;;;5088183;28;45457;-66
2022/10/22 02:21:11;;;;;;;0.45;0.40;;;18.70;68.80;;;;;;5087953;28;45209;-66
2022/10/22 02:23:38;;;;;;;0.60;0.60;;;18.70;68.80;;;;;;5088100;28;45200;-66
2022/10/22 02:26:07;;;;;;;1.52;0.50;;;18.70;68.80;;;;;;5088173;28;45448;-67
2022/10/22 02:28:37;;;;;;;0.30;0.30;;;18.70;68.90;;;;;;5087924;28;46328;-66
2022/10/22 02:31:06;;;;;;;1.23;0.65;;;18.70;68.90;;;;;;5087511;28;45185;-66
2022/10/22 02:33:34;;;;;;;0.55;0.55;;;18.70;68.80;;;;;;5087979;28;45425;-66
2022/10/22 02:36:02;;;;;;;1.50;0.70;;;18.70;68.80;;;;;;5087868;28;45459;-66
2022/10/22 02:38:29;;;;;;;1.75;0.55;;;18.70;68.80;;;;;;5087492;28;45384;-66
2022/10/22 02:40:55;;;;;;;0.55;0.40;;;18.70;68.80;;;;;;5087604;28;45351;-66
2022/10/22 02:43:24;;;;;;;0.50;0.50;;;18.70;69.50;;;;;;5087502;28;45259;-66
2022/10/22 02:45:51;;;;;;;0.47;0.47;;;18.70;68.80;;;;;;5088201;28;45231;-66
2022/10/22 02:48:18;;;;;;;0.40;0.40;;;18.70;68.80;;;;;;5087690;28;46610;-66
2022/10/22 02:50:44;;;;;;;0.55;0.55;;;18.70;68.70;;;;;;5087698;28;45199;-66
2022/10/22 02:53:13;;;;;;;0.50;0.50;;;18.70;68.80;;;;;;5087528;28;45257;-67
2022/10/22 02:55:40;;;;;;;0.40;0.40;;;18.70;68.80;;;;;;5087720;28;45350;-67
2022/10/22 02:58:06;;;;;;;0.47;0.47;;;18.70;68.80;;;;;;5087308;28;45462;-67
2022/10/22 03:00:33;;;;;;;0.38;0.38;;;18.70;68.80;;;;;;5087283;28;45200;-67
2022/10/22 03:03:00;;;;;;;0.50;0.50;;;18.70;69.50;;;;;;5087496;28;45249;-67
2022/10/22 03:05:27;;;;;;;0.50;0.50;;;18.70;68.70;;;;;;5087448;28;45398;-66
2022/10/22 03:07:54;;;;;;;0.65;0.50;;;18.70;68.70;;;;;;5087322;28;45305;-66
2022/10/22 03:10:22;;;;;;;0.43;0.40;;;18.70;68.60;;;;;;5087138;28;45308;-67
2022/10/22 03:12:49;;;;;;;0.30;0.30;;;18.70;68.60;;;;;;5087184;28;45209;-66
2022/10/22 03:15:16;;;;;;;0.40;0.40;;;18.70;68.60;;;;;;5087458;28;45227;-67
2022/10/22 03:17:43;;;;;;;0.50;0.40;;;18.70;68.60;;;;;;5086651;28;45486;-67
2022/10/22 03:20:10;;;;;;;0.65;0.60;;;18.70;68.50;;;;;;5086978;28;45400;-66
2022/10/22 03:22:37;;;;;;;0.52;0.52;;;18.70;68.50;;;;;;5087162;28;45327;-67
2022/10/22 03:25:06;;;;;;;1.20;0.50;;;18.70;68.70;;;;;;5087360;28;45451;-66
2022/10/22 03:27:34;;;;;;;0.40;0.40;;;18.70;68.70;;;;;;5086810;28;46635;-66
2022/10/22 03:30:01;;;;;;;1.33;0.40;;;18.70;68.80;;;;;;5086938;28;45190;-66
2022/10/22 03:32:28;;;;;;;0.25;0.25;;;18.70;68.70;;;;;;5086866;28;45270;-67
2022/10/22 03:34:55;;;;;;;1.38;0.40;;;18.70;68.80;;;;;;5087218;28;45257;-66
2022/10/22 03:37:22;;;;;;;0.50;0.50;;;18.70;68.60;;;;;;5086505;28;46278;-67
2022/10/22 03:39:49;;;;;;;0.40;0.40;;;18.70;68.60;;;;;;5086695;28;45340;-67
2022/10/22 03:42:16;;;;;;;0.40;0.40;;;18.70;68.50;;;;;;5087031;28;45311;-67
2022/10/22 03:44:44;;;;;;;0.40;0.40;;;18.70;68.50;;;;;;5086633;28;45224;-67
2022/10/22 03:47:11;;;;;;;0.40;0.40;;;18.60;69.30;;;;;;5086550;28;46317;-66
2022/10/22 03:49:37;;;;;;;0.50;0.50;;;18.60;68.60;;;;;;5086364;28;45352;-67
2022/10/22 03:52:08;;;;;;;0.40;0.40;;;18.60;69.20;;;;;;5086643;28;45257;-66
2022/10/22 03:54:35;;;;;;;0.47;0.47;;;18.60;68.50;;;;;;5086751;28;45397;-66
2022/10/22 03:57:02;;;;;;;1.60;0.40;;;18.60;68.60;;;;;;5086650;28;45551;-66
2022/10/22 03:59:29;;;;;;;0.55;0.20;;;18.60;68.50;;;;;;5086440;28;45342;-66
2022/10/22 04:01:57;;;;;;;0.40;0.40;;;18.60;68.40;;;;;;5086519;28;45321;-66
2022/10/22 04:04:24;;;;;;;0.90;0.45;;;18.60;68.40;;;;;;5086682;28;45180;-66
2022/10/22 04:06:51;;;;;;;0.70;0.40;;;18.60;68.40;;;;;;5086312;28;46491;-66
2022/10/22 04:09:18;;;;;;;0.40;0.40;;;18.60;68.40;;;;;;5086268;28;45290;-65
2022/10/22 04:11:45;;;;;;;0.52;0.32;;;18.60;69.10;;;;;;5086281;28;45323;-66
2022/10/22 04:14:11;;;;;;;0.50;0.43;;;18.60;68.30;;;;;;5086479;28;45404;-66
2022/10/22 04:16:39;;;;;;;0.40;0.40;;;18.60;69.00;;;;;;5086148;28;47299;-66
2022/10/22 04:19:07;;;;;;;0.40;0.40;;;18.60;68.70;;;;;;5086322;28;45222;-66
2022/10/22 04:21:34;;;;;;;0.75;0.55;;;18.60;68.20;;;;;;5086475;28;45332;-66
2022/10/22 04:24:01;;;;;;;0.63;0.40;;;18.60;68.30;;;;;;5086513;28;45324;-66
2022/10/22 04:26:28;;;;;;;0.30;0.30;;;18.60;68.30;;;;;;5085895;28;45491;-66
2022/10/22 04:28:55;;;;;;;0.40;0.40;;;18.60;68.30;;;;;;5085143;27;45261;-66
2022/10/22 04:31:23;;;;;;;0.28;0.28;;;18.60;68.20;;;;;;5085933;28;45214;-66
2022/10/22 04:33:52;;;;;;;0.28;0.28;;;18.60;68.20;;;;;;5086378;28;45327;-66
2022/10/22 04:36:21;;;;;;;0.20;0.20;;;18.60;68.30;;;;;;5085734;28;45197;-66
2022/10/22 04:38:51;;;;;;;0.40;0.40;;;18.50;68.20;;;;;;5083078;28;45276;-66
2022/10/22 04:41:19;;;;;;;0.50;0.40;;;18.50;68.30;;;;;;5086049;28;45178;-67
2022/10/22 04:43:46;;;;;;;0.28;0.28;;;18.50;68.20;;;;;;5085836;28;45527;-66
2022/10/22 04:46:13;;;;;;;0.45;0.45;;;18.50;68.30;;;;;;5085615;28;45278;-66
2022/10/22 04:48:41;;;;;;;0.40;0.40;;;18.50;68.20;;;;;;5085652;28;45308;-66
2022/10/22 04:51:08;;;;;;;0.43;0.40;;;18.50;68.20;;;;;;5085931;28;45311;-67
2022/10/22 04:53:36;;;;;;;0.40;0.40;;;18.50;68.20;;;;;;5085984;28;45181;-66
2022/10/22 04:56:08;;;;;;;1.17;0.22;;;18.50;68.20;;;;;;5085437;28;46394;-66
2022/10/22 04:58:34;;;;;;;0.50;0.50;;;18.50;68.20;;;;;;5085501;28;45190;-66
2022/10/22 05:01:01;;;;;;;0.38;0.38;;;18.50;68.10;;;;;;5085756;28;45188;-66
2022/10/22 05:03:28;;;;;;;0.47;0.47;;;18.50;68.80;;;;;;5084568;28;45326;-66
2022/10/22 05:05:55;;;;;;;0.40;0.40;;;18.50;68.10;;;;;;5085298;28;46725;-66
2022/10/22 05:08:22;;;;;;;0.40;0.40;;;18.50;68.20;;;;;;5085306;28;45389;-66
2022/10/22 05:10:50;;;;;;;0.50;0.50;;;18.50;68.20;;;;;;5085458;28;45205;-66
2022/10/22 05:13:17;;;;;;;0.40;0.40;;;18.50;68.20;;;;;;5085545;28;45264;-66
2022/10/22 05:15:44;;;;;;;0.40;0.40;;;18.50;68.20;;;;;;5085230;28;45459;-66
2022/10/22 05:18:11;;;;;;;0.40;0.40;;;18.50;68.20;;;;;;5085627;28;45336;-66
2022/10/22 05:20:39;;;;;;;0.65;0.47;;;18.40;68.10;;;;;;5085287;28;45392;-67
2022/10/22 05:23:06;;;;;;;0.63;0.50;;;18.40;68.10;;;;;;5085493;28;45450;-66
2022/10/22 05:25:36;;;;;;;0.30;0.30;;;18.40;68.10;;;;;;5085123;28;45247;-66
2022/10/22 05:28:04;;;;;;;0.30;0.30;;;18.40;68.10;;;;;;5085042;28;45365;-66
2022/10/22 05:30:31;;;;;;;0.40;0.38;;;18.40;68.10;;;;;;5085392;28;45213;-66
2022/10/22 05:32:58;;;;;;;0.95;0.40;;;18.40;68.10;;;;;;5085327;28;45417;-66
2022/10/22 05:35:25;;;;;;;0.43;0.43;;;18.40;68.10;;;;;;5084984;28;46401;-66
2022/10/22 05:37:52;;;;;;;0.40;0.40;;;18.40;68.10;;;;;;5084799;28;45396;-66
2022/10/22 05:40:19;;;;;;;0.70;0.40;;;18.40;68.10;;;;;;5086440;27;45184;-66
2022/10/22 05:42:46;;;;;;;0.40;0.40;;;18.40;68.10;;;;;;5088647;28;45126;-67
2022/10/22 05:45:14;;;;;;;0.50;0.50;;;18.40;68.10;;;;;;5088386;28;46407;-66
2022/10/22 05:47:41;;;;;;;0.35;0.35;;;18.40;68.80;;;;;;5088412;28;45299;-66
2022/10/22 05:50:08;;;;;;;0.40;0.40;;;18.40;68.00;;;;;;5088550;28;45332;-67
2022/10/22 05:52:35;;;;;;;0.63;0.40;;;18.40;68.00;;;;;;5088745;28;45527;-66
2022/10/22 05:55:02;;;;;;;0.98;0.40;;;18.40;68.00;;;;;;5088311;28;46952;-66
2022/10/22 05:57:29;;;;;;;0.30;0.30;;;18.40;68.00;;;;;;5088266;28;45380;-66
2022/10/22 05:59:55;;;;;;;0.32;0.32;;;18.40;68.00;;;;;;5088646;28;45390;-66
2022/10/22 06:02:24;;;;;;;0.32;0.32;;;18.40;68.10;;;;;;5088470;28;45339;-66
2022/10/22 06:04:50;;;;;;;0.40;0.40;;;18.30;68.10;;;;;;5088068;28;46656;-67
2022/10/22 06:07:17;;;;;;;0.40;0.40;;;18.30;68.90;;;;;;5088206;28;45289;-66
2022/10/22 06:09:46;;;;;;;0.75;0.32;;;18.30;68.20;;;;;;5088264;28;45322;-66
2022/10/22 06:12:13;;;;;;;0.30;0.30;;;18.30;68.10;;;;;;5088282;28;45288;-66
2022/10/22 06:14:40;;;;;;;0.40;0.40;;;18.30;68.10;;;;;;5088148;28;45250;-66
2022/10/22 06:17:06;;;;;;;0.35;0.32;;;18.30;68.20;;;;;;5088306;28;45193;-66
2022/10/22 06:19:35;;;;;;;0.40;0.40;;;18.30;68.10;;;;;;5088103;28;45259;-66
2022/10/22 06:22:02;;;;;;;0.43;0.43;;;18.30;68.10;;;;;;5088238;28;45423;-66
2022/10/22 06:24:29;;;;;;;1.42;0.50;;;18.30;68.10;;;;;;5087884;28;45304;-66
2022/10/22 06:26:56;;;;;;;0.30;0.30;;;18.30;68.00;;;;;;5088040;28;45186;-66
2022/10/22 06:29:22;;;;;;;1.35;0.30;;;18.30;68.70;;;;;;5088107;28;45147;-66
2022/10/22 06:31:49;;;;;;;0.50;0.50;;;18.30;68.00;;;;;;5088246;28;45446;-66
2022/10/22 06:34:17;;;;;;;0.70;0.60;;;18.30;68.00;;;;;;5087752;28;46458;-66
2022/10/22 06:36:45;;;;;;;0.30;0.30;;;18.30;67.90;;;;;;5087700;28;45250;-66
2022/10/22 06:39:13;;;;;;;0.98;0.55;;;18.30;67.90;;;;;;5088188;28;45291;-66
2022/10/22 06:41:40;;;;;;;0.50;0.50;;;18.30;67.90;;;;;;5087948;28;45364;-67
2022/10/22 06:44:06;;;;;;;0.60;0.50;;;18.30;68.70;;;;;;5087409;28;45388;-66
2022/10/22 06:46:33;;;;;;;0.43;0.43;;;18.30;67.80;;;;;;5087484;28;45314;-66
2022/10/22 06:49:01;;;;;;;0.35;0.35;;;18.30;67.90;;;;;;5087745;28;45199;-66
2022/10/22 06:51:28;;;;;;;0.50;0.50;;;18.30;67.80;;;;;;5087329;27;45202;-66
2022/10/22 06:53:57;;;;;;;0.50;0.50;;;18.30;67.80;;;;;;5087137;28;46461;-66
2022/10/22 06:56:25;;;;;;;0.47;0.40;;;18.30;67.80;;;;;;5087411;28;45304;-66
2022/10/22 06:58:53;;;;;;;0.40;0.40;;;18.30;67.80;;;;;;5087693;28;45216;-66
2022/10/22 07:01:20;;;;;;;0.40;0.40;;;18.30;67.70;;;;;;5087597;28;45333;-66
2022/10/22 07:03:49;;;;;;;0.40;0.40;;;18.30;67.80;;;;;;5087339;28;46315;-66
2022/10/22 07:06:16;;;;;;;0.50;0.50;;;18.30;67.70;;;;;;5087185;28;45189;-66
2022/10/22 07:08:43;;;;;;;0.45;0.45;;;18.30;67.70;;;;;;5087536;28;45332;-66
2022/10/22 07:11:12;;;;;;;0.40;0.40;;;18.30;67.60;;;;;;5087448;28;45389;-67
2022/10/22 07:13:39;;;;;;;0.40;0.40;;;18.30;67.70;;;;;;5086936;28;45301;-66
2022/10/22 07:16:06;;;;;;;0.40;0.40;;;18.30;67.60;;;;;;5087046;28;45163;-66
2022/10/22 07:18:33;;;;;;;0.60;0.60;;;18.30;67.50;;;;;;5087477;28;45323;-66
2022/10/22 07:21:00;;;;;;;0.40;0.40;;;18.30;67.50;;;;;;5087407;28;45395;-66
2022/10/22 07:23:27;;;;;;;0.52;0.52;;;18.30;67.50;;;;;;5086820;28;45292;-66
2022/10/22 07:25:54;;;;;;;0.35;0.35;;;18.30;68.20;;;;;;5086873;28;45227;-66
2022/10/22 07:28:22;;;;;;;0.50;0.50;;;18.30;67.50;;;;;;5087013;28;45192;-66
2022/10/22 07:30:49;;;;;;;0.50;0.50;;;18.30;67.40;;;;;;5087165;28;45343;-66
2022/10/22 07:33:16;;;;;;;0.50;0.50;;;18.30;67.50;;;;;;5086614;28;45475;-67
2022/10/22 07:35:43;;;;;;;1.60;0.40;;;18.30;67.40;;;;;;5086612;28;45384;-66
2022/10/22 07:38:10;;;;;;;0.40;0.40;;;18.30;67.50;;;;;;5086958;28;45285;-67
2022/10/22 07:40:37;;;;;;;0.50;0.50;;;18.30;68.10;;;;;;5087045;28;45325;-66
2022/10/22 07:43:03;;;;;;;0.63;0.63;;;18.30;67.40;;;;;;5086348;28;46696;-66
2022/10/22 07:45:32;;;;;;;0.40;0.40;;;18.30;67.50;;;;;;5086480;28;45327;-66
2022/10/22 07:47:59;;;;;;;0.60;0.60;;;18.30;67.50;;;;;;5086839;28;45300;-66
2022/10/22 07:50:26;;;;;;;0.52;0.52;;;18.30;67.40;;;;;;5086790;28;45553;-66
2022/10/22 07:52:53;;;;;;;0.50;0.50;;;18.30;67.40;;;;;;5086158;28;45251;-66
2022/10/22 07:55:20;;;;;;;0.75;0.75;;;18.30;67.50;;;;;;5086482;28;45327;-66
2022/10/22 07:57:46;;;;;;;0.55;0.52;;;18.20;67.40;;;;;;5086548;28;45279;-66
2022/10/22 08:00:16;;;;;;;0.60;0.60;;;18.20;67.60;;;;;;5086599;28;45356;-67
2022/10/22 08:02:44;;;;;;;0.90;0.88;;;18.30;67.70;;;;;;5086263;28;47305;-66
2022/10/22 08:05:12;;;;;;;0.70;0.70;;;18.20;67.70;;;;;;5085327;28;45241;-66
2022/10/22 08:07:39;;;;;;;0.75;0.75;;;18.20;67.50;;;;;;5086273;28;45327;-67
2022/10/22 08:10:06;;;;;;;0.70;0.70;;;18.30;67.50;;;;;;5086638;28;45157;-66
2022/10/22 08:12:33;;;;;;;0.85;0.60;;;18.30;67.40;;;;;;5086261;28;47061;-66
2022/10/22 08:15:00;;;;;;;0.70;0.70;;;18.30;68.20;;;;;;5086063;28;45308;-66
2022/10/22 08:17:27;;;;;;;0.60;0.60;;;18.30;67.40;;;;;;5086287;28;45233;-66
2022/10/22 08:19:55;;;;;;;1.02;0.80;;;18.30;67.40;;;;;;5086531;28;45300;-67
2022/10/22 08:22:22;;;;;;;0.68;0.65;;;18.30;67.50;;;;;;5085947;28;45201;-66
2022/10/22 08:24:49;;;;;;;0.82;0.82;;;18.30;67.50;;;;;;5086293;28;45149;-66
2022/10/22 08:27:16;;;;;;;0.77;0.75;;;18.30;67.60;;;;;;5086165;28;45326;-66
2022/10/22 08:29:43;;;;;;;0.98;0.88;;;18.30;67.60;;;;;;5086178;28;45352;-66
2022/10/22 08:32:10;;;;;;;0.60;0.60;;;18.30;67.50;;;;;;5085804;28;45182;-67
2022/10/22 08:34:36;;;;;;;0.70;0.70;;;18.40;67.40;;;;;;5085770;28;45179;-66
2022/10/22 08:37:07;;;;;;;0.80;0.80;;;18.40;67.40;;;;;;5085904;28;45170;-66
2022/10/22 08:39:34;;;;;;;0.70;0.70;;;18.40;67.30;;;;;;5086028;28;45447;-66
2022/10/22 08:42:08;;;;;;;0.70;0.70;;;18.40;67.30;;;;;;5085671;28;45231;-66
2022/10/22 08:44:47;;;;;;;1.10;0.82;;;18.40;67.20;;;;;;5085379;28;45223;-66
2022/10/22 08:47:21;;;;;;;1.08;0.82;;;18.50;67.30;;;;;;5085906;28;45249;-66
2022/10/22 08:49:48;;;;;;;1.50;0.80;;;18.50;67.00;;;;;;5085979;28;45399;-66
2022/10/22 08:52:17;;;;;;;1.02;0.70;;;18.50;67.00;;;;;;5085497;28;46535;-66
2022/10/22 08:54:49;;;;;;;0.90;0.75;;;18.50;66.80;;;;;;5085650;28;45292;-67
2022/10/22 08:57:39;;;;;;;0.80;0.80;;;18.50;66.90;;;;;;5085681;28;45259;-67
2022/10/22 09:00:11;;;;;;;0.73;0.68;;;18.60;66.80;;;;;;5086055;28;45365;-66
2022/10/22 09:02:40;;;;;;;0.90;0.77;;;18.60;66.90;;;;;;5085335;28;45661;-66
2022/10/22 09:05:16;;;;;;;1.25;0.95;;;18.60;66.70;;;;;;5085444;28;45156;-66
2022/10/22 09:07:48;;;;;;;0.73;0.73;;;18.60;66.70;;;;;;5085626;28;45174;-66
2022/10/22 09:10:16;;;;;;;0.90;0.90;;;18.70;66.70;;;;;;5085901;28;45175;-66
2022/10/22 09:12:42;;;;;;;0.60;0.60;;;18.70;66.70;;;;;;5085114;28;45257;-67
2022/10/22 09:15:13;;;;;;;0.70;0.70;;;18.70;66.60;;;;;;5086167;28;45416;-67
2022/10/22 09:17:45;;;;;;;0.82;0.70;;;18.70;66.70;;;;;;5089140;28;45183;-66
2022/10/22 09:20:15;;;;;;;0.70;0.60;;;18.80;66.70;;;;;;5089117;28;45372;-66
2022/10/22 09:22:46;;;;;;;0.98;0.85;;;18.80;66.70;;;;;;5088763;28;46418;-66
2022/10/22 09:25:19;;;;;;;0.70;0.70;;;18.80;66.60;;;;;;5088871;28;45321;-67
2022/10/22 09:27:46;;;;;;;0.55;0.55;;;18.80;66.50;;;;;;5088880;28;45276;-66
2022/10/22 09:30:15;;;;;;;1.23;0.85;;;18.90;66.80;;;;;;5089100;28;45277;-66
2022/10/22 09:32:42;;;;;;;0.80;0.80;;;18.80;66.60;;;;;;5088758;28;45486;-67
2022/10/22 09:35:11;;;;;;;0.85;0.85;;;18.90;66.70;;;;;;5088715;28;45261;-66
2022/10/22 09:37:37;;;;;;;0.63;0.63;;;18.90;66.60;;;;;;5088830;28;45359;-66
2022/10/22 09:40:08;;;;;;;1.05;0.80;;;18.90;66.60;;;;;;5067738;28;45440;-66
2022/10/22 09:42:35;;;;;;;0.73;0.73;;;18.90;66.50;;;;;;5068282;28;46341;-66
2022/10/22 09:45:01;;;;;;;0.80;0.80;;;19.00;66.60;;;;;;5068161;28;45401;-66
2022/10/22 09:47:32;;;;;;;0.95;0.70;;;19.00;66.50;;;;;;5068361;28;45353;-66
2022/10/22 09:50:20;;;;;;;0.80;0.80;;;19.00;66.70;;;;;;5068510;28;45443;-66
2022/10/22 09:52:54;;;;;;;0.77;0.77;;;19.10;66.60;;;;;;5068005;28;46357;-67
2022/10/22 09:55:23;;;;;;;0.98;0.90;;;19.10;66.80;;;;;;5068011;28;45326;-66
2022/10/22 09:57:53;;;;;;;0.70;0.70;;;19.10;66.70;;;;;;5068429;28;45190;-67
2022/10/22 10:00:20;;;;;;;0.68;0.68;;;19.20;66.80;;;;;;5068201;28;45468;-66
2022/10/22 10:02:47;;;;;;;1.02;0.90;;;19.20;66.70;;;;;;5067822;28;46669;-66
2022/10/22 10:05:18;;;;;;;0.80;0.80;;;19.20;66.70;;;;;;5067993;28;45346;-67
2022/10/22 10:07:46;;;;;;;0.90;0.80;;;19.30;66.70;;;;;;5068098;28;45281;-67
2022/10/22 10:10:17;;;;;;;0.90;0.90;;;19.30;66.70;;;;;;5068145;28;45334;-66
2022/10/22 10:12:48;;;;;;;0.80;0.80;;;19.40;66.80;;;;;;5067652;28;46397;-67
2022/10/22 10:15:17;;;;;;;1.17;0.65;;;19.40;66.80;;;;;;5067600;28;45193;-67
2022/10/22 10:17:48;;;;;;;0.60;0.60;;;19.50;66.80;;;;;;5067816;28;45199;-67
2022/10/22 10:20:22;;;;;;;0.70;0.63;;;19.50;66.80;;;;;;5067937;28;45297;-67
2022/10/22 10:22:53;;;;;;;1.05;0.85;;;19.50;66.60;;;;;;5067582;28;46444;-67
2022/10/22 10:25:37;;;;;;;0.98;0.80;;;19.60;67.30;;;;;;5067531;28;45393;-67
2022/10/22 10:28:21;;;;;;;0.95;0.80;;;19.60;66.60;;;;;;5066759;28;45254;-68
2022/10/22 10:30:51;;;;;;;0.80;0.77;;;19.70;66.40;;;;;;5067864;28;45178;-68
2022/10/22 10:33:24;;;;;;;1.00;0.90;;;19.70;66.10;;;;;;5067198;28;46167;-68
2022/10/22 10:35:55;;;;;;;1.10;0.90;;;19.80;66.00;;;;;;5070366;28;45437;-68
2022/10/22 10:38:32;;;;;;;1.05;0.55;;;19.80;65.70;;;;;;5087774;28;45253;-68
2022/10/22 10:41:03;;;;;;;0.75;0.73;;;19.90;65.70;;;;;;5088082;28;45617;-68
2022/10/22 10:43:35;;;;;;;0.77;0.77;;;20.00;65.20;;;;;;5087153;28;45460;-68
2022/10/22 10:46:06;;;;;;;0.65;0.60;;;20.00;65.40;;;;;;5087393;28;45303;-68
2022/10/22 10:48:49;;;;;;;1.25;0.90;;;20.10;65.10;;;;;;5087721;28;45196;-67
2022/10/22 10:51:26;;;;;;;0.90;0.77;;;20.20;65.20;;;;;;5087970;28;45157;-70
2022/10/22 10:54:04;;;;;;;1.00;0.80;;;20.30;65.10;;;;;;5087097;28;45203;-68
2022/10/22 10:56:36;;;;;;;0.90;0.60;;;20.30;64.80;;;;;;5087441;28;45305;-68
2022/10/22 10:59:16;;;;;;;0.70;0.70;;;20.40;64.90;;;;;;5087706;28;45133;-68
2022/10/22 11:01:49;;;;;;;1.52;0.73;;;20.50;64.70;;;;;;5087690;28;45408;-68
2022/10/22 11:04:32;;;;;;;0.73;0.73;;;20.60;65.30;;;;;;5087226;28;46420;-69
2022/10/22 11:07:00;;;;;;;0.80;0.80;;;20.60;64.20;;;;;;5087227;28;45177;-67
2022/10/22 11:09:28;;;;;;;0.68;0.68;;;20.70;64.40;;;;;;5087248;28;45306;-68
2022/10/22 11:11:57;;;;;;;0.80;0.80;;;20.70;64.30;;;;;;5087719;28;45409;-68
2022/10/22 11:14:28;;;;;;;0.77;0.60;;;20.80;64.20;;;;;;5086975;28;45184;-66
2022/10/22 11:16:56;;;;;;;0.75;0.70;;;20.80;64.20;;;;;;5087260;28;45437;-67
2022/10/22 11:19:24;;;;;;;0.63;0.60;;;20.90;64.30;;;;;;5087245;28;45300;-66
2022/10/22 11:21:54;;;;;;;0.55;0.55;;;20.90;64.30;;;;;;5087255;28;45373;-69
2022/10/22 11:24:24;;;;;;;0.50;0.50;;;21.00;64.20;;;;;;5086882;28;47286;-68
2022/10/22 11:26:53;;;;;;;0.80;0.80;;;21.00;63.90;;;;;;5087072;28;45379;-66
2022/10/22 11:29:21;;;;;;;2.05;0.70;;;21.00;63.60;;;;;;5086245;27;45443;-67
2022/10/22 11:31:50;;;;;;;0.70;0.70;;;21.10;63.70;;;;;;5087206;28;45190;-68
2022/10/22 11:34:19;;;;;;;0.75;0.60;;;21.10;63.60;;;;;;5086671;28;46728;-68
2022/10/22 11:36:46;;;;;;;0.75;0.60;;;21.20;63.60;;;;;;5086750;28;45338;-68
2022/10/22 11:39:30;;;;;;;1.75;0.85;;;21.20;63.40;;;;;;5086827;27;45214;-67
2022/10/22 11:41:58;;;;;;;0.60;0.60;;;21.30;63.50;;;;;;5086949;28;45549;-68
2022/10/22 11:44:25;;;;;;;0.65;0.65;;;21.30;63.60;;;;;;5086142;27;46392;-68
2022/10/22 11:46:57;;;;;;;0.80;0.80;;;21.30;63.50;;;;;;5086498;28;45430;-68
2022/10/22 11:49:26;;;;;;;1.15;1.08;;;21.40;64.10;;;;;;5086728;28;45276;-66
2022/10/22 11:52:05;;;;;;;2.47;0.80;;;21.40;64.30;;;;;;5086865;28;45229;-67
2022/10/22 11:54:41;;;;;;;1.30;0.80;;;21.50;63.50;;;;;;5086321;28;47278;-67
2022/10/22 11:57:19;;;;;;;1.20;1.10;;;21.50;63.40;;;;;;5086233;28;45197;-67
2022/10/22 11:59:49;;;;;;;0.75;0.75;;;21.60;63.70;;;;;;5086582;28;45269;-68
2022/10/22 12:02:37;;;;;;;0.90;0.75;;;21.60;63.60;;;;;;5086719;28;45347;-68
2022/10/22 12:05:33;;;;;;;2.08;1.10;;;21.60;63.60;;;;;;5086244;28;45251;-68
2022/10/22 12:08:02;;;;;;;3.33;1.15;;;21.70;63.50;;;;;;5086083;28;45247;-67
2022/10/22 12:10:34;;;;;;;1.50;0.80;;;21.70;63.40;;;;;;5086538;28;45337;-68
2022/10/22 12:13:02;;;;;;;0.80;0.80;;;21.80;63.30;;;;;;5086568;28;45196;-68
2022/10/22 12:15:29;;;;;;;2.22;1.00;;;21.80;63.60;;;;;;5086102;28;47410;-69
2022/10/22 12:18:02;;;;;;;1.48;1.10;;;21.80;63.70;;;;;;5086302;28;45323;-68
2022/10/22 12:20:29;;;;;;;1.92;1.30;;;21.90;63.70;;;;;;5086395;28;45244;-67
2022/10/22 12:22:56;;;;;;;2.00;1.10;;;21.90;63.80;;;;;;5086465;28;45438;-67
2022/10/22 12:25:24;;;;;;;1.75;1.00;;;22.00;63.70;;;;;;5086076;28;45408;-69
2022/10/22 12:27:52;;;;;;;2.45;1.20;;;22.00;63.30;;;;;;5086021;28;45245;-68
2022/10/22 12:30:21;;;;;;;1.65;0.98;;;22.00;63.20;;;;;;5086216;28;45276;-68
2022/10/22 12:32:48;;;;;;;0.85;0.85;;;22.00;63.20;;;;;;5086280;28;45189;-69
2022/10/22 12:35:18;;;;;;;3.17;1.02;;;22.10;63.50;;;;;;5085706;28;46482;-67
2022/10/22 12:37:45;;;;;;;2.05;1.00;;;22.10;63.20;;;;;;5085804;28;45260;-68
2022/10/22 12:40:20;;;;;;;1.80;1.20;;;22.10;63.20;;;;;;5085582;28;45198;-69
2022/10/22 12:42:50;;;;;;;2.17;1.00;;;22.20;63.30;;;;;;5086017;28;45155;-68
2022/10/22 12:45:17;;;;;;;1.08;0.90;;;22.20;63.40;;;;;;5085684;28;46698;-68
2022/10/22 12:47:47;;;;;;;1.25;1.15;;;22.20;63.30;;;;;;5085681;28;45468;-69
2022/10/22 12:50:20;;;;;;;8.55;1.42;;;22.20;63.30;;;;;;5085327;28;45198;-69
2022/10/22 12:52:47;;;;;;;3.92;1.45;;;22.20;64.30;;;;;;5086603;28;45177;-69
2022/10/22 12:55:16;;;;;;;0.93;0.93;;;22.20;64.10;;;;;;5085384;28;45731;-67
2022/10/22 12:57:43;;;;;;;2.38;1.10;;;22.30;64.40;;;;;;5085709;28;45392;-66